sensor_id;sensor_type;location;lat;lon;timestamp;pressure;altitude;pressure_sealevel;temperature
65765;BMP180;52915;53.718;19.946;2022-12-18T00:04:25;101678.80;;;-3.72
65765;BMP180;52915;53.718;19.946;2022-12-18T00:09:29;101688.40;;;-3.80
65765;BMP180;52915;53.718;19.946;2022-12-18T00:14:42;101692.80;;;-3.90
65765;BMP180;52915;53.718;19.946;2022-12-18T00:19:46;101693.20;;;-3.72
65765;BMP180;52915;53.718;19.946;2022-12-18T00:24:49;101704.00;;;-3.50
65765;BMP180;52915;53.718;19.946;2022-12-18T00:29:53;101720.40;;;-3.32
65765;BMP180;52915;53.718;19.946;2022-12-18T00:34:57;101722.80;;;-3.50
65765;BMP180;52915;53.718;19.946;2022-12-18T00:40:02;101726.80;;;-3.70
65765;BMP180;52915;53.718;19.946;2022-12-18T00:45:06;101724.20;;;-3.90
65765;BMP180;52915;53.718;19.946;2022-12-18T00:50:15;101735.00;;;-3.94
65765;BMP180;52915;53.718;19.946;2022-12-18T00:55:19;101747.60;;;-3.70
65765;BMP180;52915;53.718;19.946;2022-12-18T01:00:23;101750.00;;;-3.70
65765;BMP180;52915;53.718;19.946;2022-12-18T01:05:28;101752.40;;;-3.90
65765;BMP180;52915;53.718;19.946;2022-12-18T01:10:31;101751.00;;;-4.12
65765;BMP180;52915;53.718;19.946;2022-12-18T01:15:35;101750.00;;;-4.20
65765;BMP180;52915;53.718;19.946;2022-12-18T01:20:39;101753.60;;;-3.96
65765;BMP180;52915;53.718;19.946;2022-12-18T01:25:43;101757.20;;;-3.90
65765;BMP180;52915;53.718;19.946;2022-12-18T01:30:47;101756.00;;;-4.10
65765;BMP180;52915;53.718;19.946;2022-12-18T01:35:50;101782.00;;;-4.40
65765;BMP180;52915;53.718;19.946;2022-12-18T01:40:59;101784.60;;;-4.50
65765;BMP180;52915;53.718;19.946;2022-12-18T01:46:03;101795.80;;;-4.40
65765;BMP180;52915;53.718;19.946;2022-12-18T01:51:10;101795.00;;;-4.20
65765;BMP180;52915;53.718;19.946;2022-12-18T02:01:30;101796.40;;;-4.50
65765;BMP180;52915;53.718;19.946;2022-12-18T02:06:40;101795.40;;;-4.54
65765;BMP180;52915;53.718;19.946;2022-12-18T02:17:18;101803.80;;;-4.20
65765;BMP180;52915;53.718;19.946;2022-12-18T02:28:04;101820.40;;;-4.70
65765;BMP180;52915;53.718;19.946;2022-12-18T02:33:11;101823.00;;;-4.60
65765;BMP180;52915;53.718;19.946;2022-12-18T02:38:17;101821.00;;;-4.78
65765;BMP180;52915;53.718;19.946;2022-12-18T02:43:21;101817.00;;;-4.90
65765;BMP180;52915;53.718;19.946;2022-12-18T02:48:34;101823.20;;;-4.90
65765;BMP180;52915;53.718;19.946;2022-12-18T02:53:58;101836.00;;;-4.90
65765;BMP180;52915;53.718;19.946;2022-12-18T02:59:13;101853.20;;;-5.06
65765;BMP180;52915;53.718;19.946;2022-12-18T03:04:49;101855.00;;;-5.10
65765;BMP180;52915;53.718;19.946;2022-12-18T03:09:59;101858.40;;;-4.80
65765;BMP180;52915;53.718;19.946;2022-12-18T03:15:26;101871.60;;;-4.90
65765;BMP180;52915;53.718;19.946;2022-12-18T03:20:34;101878.20;;;-5.20
65765;BMP180;52915;53.718;19.946;2022-12-18T03:25:42;101878.40;;;-5.40
65765;BMP180;52915;53.718;19.946;2022-12-18T03:30:54;101877.60;;;-5.30
65765;BMP180;52915;53.718;19.946;2022-12-18T03:35:59;101885.40;;;-5.10
65765;BMP180;52915;53.718;19.946;2022-12-18T03:41:18;101880.60;;;-5.20
65765;BMP180;52915;53.718;19.946;2022-12-18T03:46:35;101888.40;;;-5.40
65765;BMP180;52915;53.718;19.946;2022-12-18T03:52:11;101890.40;;;-5.38
65765;BMP180;52915;53.718;19.946;2022-12-18T03:57:20;101902.00;;;-5.30
65765;BMP180;52915;53.718;19.946;2022-12-18T04:02:25;101910.00;;;-5.36
65765;BMP180;52915;53.718;19.946;2022-12-18T04:07:30;101904.60;;;-5.30
65765;BMP180;52915;53.718;19.946;2022-12-18T04:12:34;101907.40;;;-5.42
65765;BMP180;52915;53.718;19.946;2022-12-18T04:17:46;101912.00;;;-5.50
65765;BMP180;52915;53.718;19.946;2022-12-18T04:22:53;101928.60;;;-5.30
65765;BMP180;52915;53.718;19.946;2022-12-18T04:27:56;101924.60;;;-5.56
65765;BMP180;52915;53.718;19.946;2022-12-18T04:33:00;101924.80;;;-5.80
65765;BMP180;52915;53.718;19.946;2022-12-18T04:38:06;101933.60;;;-5.60
65765;BMP180;52915;53.718;19.946;2022-12-18T04:43:11;101944.00;;;-5.80
65765;BMP180;52915;53.718;19.946;2022-12-18T04:48:15;101953.20;;;-5.70
65765;BMP180;52915;53.718;19.946;2022-12-18T04:53:19;101961.60;;;-5.60
65765;BMP180;52915;53.718;19.946;2022-12-18T04:58:23;101956.60;;;-5.60
65765;BMP180;52915;53.718;19.946;2022-12-18T05:03:27;101955.80;;;-5.40
65765;BMP180;52915;53.718;19.946;2022-12-18T05:08:32;101960.60;;;-5.22
65765;BMP180;52915;53.718;19.946;2022-12-18T05:13:37;101963.80;;;-5.30
65765;BMP180;52915;53.718;19.946;2022-12-18T05:18:42;101969.20;;;-5.12
65765;BMP180;52915;53.718;19.946;2022-12-18T05:23:46;101976.20;;;-4.80
65765;BMP180;52915;53.718;19.946;2022-12-18T05:28:49;101977.40;;;-4.60
65765;BMP180;52915;53.718;19.946;2022-12-18T05:33:53;101985.60;;;-4.70
65765;BMP180;52915;53.718;19.946;2022-12-18T05:38:57;101989.20;;;-4.70
65765;BMP180;52915;53.718;19.946;2022-12-18T05:44:01;101999.60;;;-4.58
65765;BMP180;52915;53.718;19.946;2022-12-18T05:49:05;102010.00;;;-4.30
65765;BMP180;52915;53.718;19.946;2022-12-18T05:54:09;102010.20;;;-4.20
65765;BMP180;52915;53.718;19.946;2022-12-18T05:59:13;102012.40;;;-4.30
65765;BMP180;52915;53.718;19.946;2022-12-18T06:04:17;102013.80;;;-4.20
65765;BMP180;52915;53.718;19.946;2022-12-18T06:14:54;102035.80;;;-3.72
65765;BMP180;52915;53.718;19.946;2022-12-18T06:19:59;102036.60;;;-3.70
65765;BMP180;52915;53.718;19.946;2022-12-18T06:25:05;102043.80;;;-3.80
65765;BMP180;52915;53.718;19.946;2022-12-18T06:30:11;102046.60;;;-3.74
65765;BMP180;52915;53.718;19.946;2022-12-18T06:35:16;102052.20;;;-3.60
65765;BMP180;52915;53.718;19.946;2022-12-18T06:40:21;102056.40;;;-3.60
65765;BMP180;52915;53.718;19.946;2022-12-18T06:45:26;102061.20;;;-3.66
65765;BMP180;52915;53.718;19.946;2022-12-18T06:50:30;102066.20;;;-3.50
65765;BMP180;52915;53.718;19.946;2022-12-18T06:55:34;102078.20;;;-3.50
65765;BMP180;52915;53.718;19.946;2022-12-18T07:00:38;102081.60;;;-3.46
65765;BMP180;52915;53.718;19.946;2022-12-18T07:05:42;102089.40;;;-3.44
65765;BMP180;52915;53.718;19.946;2022-12-18T07:10:46;102096.80;;;-3.34
65765;BMP180;52915;53.718;19.946;2022-12-18T07:16:15;102110.60;;;-3.40
65765;BMP180;52915;53.718;19.946;2022-12-18T07:21:27;102112.40;;;-3.44
65765;BMP180;52915;53.718;19.946;2022-12-18T07:26:31;102126.20;;;-3.30
65765;BMP180;52915;53.718;19.946;2022-12-18T07:31:35;102127.00;;;-3.30
65765;BMP180;52915;53.718;19.946;2022-12-18T07:36:39;102135.80;;;-3.20
65765;BMP180;52915;53.718;19.946;2022-12-18T07:41:43;102140.20;;;-3.20
65765;BMP180;52915;53.718;19.946;2022-12-18T07:47:07;102139.80;;;-3.00
65765;BMP180;52915;53.718;19.946;2022-12-18T07:52:14;102149.80;;;-3.00
65765;BMP180;52915;53.718;19.946;2022-12-18T07:57:23;102151.80;;;-3.10
65765;BMP180;52915;53.718;19.946;2022-12-18T08:02:47;102147.40;;;-2.82
65765;BMP180;52915;53.718;19.946;2022-12-18T08:07:53;102150.80;;;-2.70
65765;BMP180;52915;53.718;19.946;2022-12-18T08:12:56;102151.60;;;-2.70
65765;BMP180;52915;53.718;19.946;2022-12-18T08:18:07;102148.40;;;-2.50
65765;BMP180;52915;53.718;19.946;2022-12-18T08:23:16;102151.00;;;-2.30
65765;BMP180;52915;53.718;19.946;2022-12-18T08:28:21;102151.80;;;-2.26
65765;BMP180;52915;53.718;19.946;2022-12-18T08:33:25;102158.00;;;-1.62
65765;BMP180;52915;53.718;19.946;2022-12-18T08:38:30;102122.40;;;0.90
65765;BMP180;52915;53.718;19.946;2022-12-18T08:43:35;102157.40;;;1.80
65765;BMP180;52915;53.718;19.946;2022-12-18T08:48:58;102187.60;;;0.64
65765;BMP180;52915;53.718;19.946;2022-12-18T08:54:03;102193.40;;;1.50
65765;BMP180;52915;53.718;19.946;2022-12-18T08:59:09;102209.20;;;0.34
65765;BMP180;52915;53.718;19.946;2022-12-18T09:04:22;102213.40;;;-0.30
65765;BMP180;52915;53.718;19.946;2022-12-18T09:09:26;102230.00;;;-0.70
65765;BMP180;52915;53.718;19.946;2022-12-18T09:14:30;102241.00;;;-1.10
65765;BMP180;52915;53.718;19.946;2022-12-18T09:19:34;102231.80;;;-1.54
65765;BMP180;52915;53.718;19.946;2022-12-18T09:24:39;102219.20;;;-1.70
65765;BMP180;52915;53.718;19.946;2022-12-18T09:29:43;102217.60;;;-1.40
65765;BMP180;52915;53.718;19.946;2022-12-18T09:34:48;102236.20;;;-1.50
65765;BMP180;52915;53.718;19.946;2022-12-18T09:39:58;102239.20;;;-1.70
65765;BMP180;52915;53.718;19.946;2022-12-18T09:45:03;102241.60;;;-1.60
65765;BMP180;52915;53.718;19.946;2022-12-18T09:50:37;102241.00;;;-1.50
65765;BMP180;52915;53.718;19.946;2022-12-18T09:55:46;102238.00;;;-0.90
65765;BMP180;52915;53.718;19.946;2022-12-18T10:00:53;102200.60;;;0.46
65765;BMP180;52915;53.718;19.946;2022-12-18T10:06:36;102149.40;;;2.34
65765;BMP180;52915;53.718;19.946;2022-12-18T10:27:45;102189.80;;;16.20
65765;BMP180;52915;53.718;19.946;2022-12-18T10:32:50;102239.80;;;13.84
65765;BMP180;52915;53.718;19.946;2022-12-18T10:43:28;102158.80;;;8.74
65765;BMP180;52915;53.718;19.946;2022-12-18T10:48:56;102160.00;;;9.10
65765;BMP180;52915;53.718;19.946;2022-12-18T10:54:29;102188.20;;;12.30
65765;BMP180;52915;53.718;19.946;2022-12-18T10:59:54;102186.40;;;13.66
65765;BMP180;52915;53.718;19.946;2022-12-18T11:05:00;102207.80;;;14.10
65765;BMP180;52915;53.718;19.946;2022-12-18T11:10:15;102230.00;;;13.96
65765;BMP180;52915;53.718;19.946;2022-12-18T11:15:29;102194.80;;;14.66
65765;BMP180;52915;53.718;19.946;2022-12-18T11:20:37;102218.20;;;15.24
65765;BMP180;52915;53.718;19.946;2022-12-18T11:25:58;102209.40;;;16.00
65765;BMP180;52915;53.718;19.946;2022-12-18T11:36:33;102230.60;;;16.38
65765;BMP180;52915;53.718;19.946;2022-12-18T11:41:52;102232.60;;;16.60
65765;BMP180;52915;53.718;19.946;2022-12-18T11:47:35;102242.00;;;17.06
65765;BMP180;52915;53.718;19.946;2022-12-18T11:52:42;102238.20;;;16.90
65765;BMP180;52915;53.718;19.946;2022-12-18T12:04:00;102254.40;;;16.96
65765;BMP180;52915;53.718;19.946;2022-12-18T12:09:39;102273.20;;;16.70
65765;BMP180;52915;53.718;19.946;2022-12-18T12:15:30;102272.80;;;16.60
65765;BMP180;52915;53.718;19.946;2022-12-18T12:26:45;102322.20;;;15.84
65765;BMP180;52915;53.718;19.946;2022-12-18T12:43:10;102344.60;;;9.06
65765;BMP180;52915;53.718;19.946;2022-12-18T12:53:40;102328.80;;;5.98
65765;BMP180;52915;53.718;19.946;2022-12-18T12:59:18;102275.60;;;4.92
65765;BMP180;52915;53.718;19.946;2022-12-18T13:05:14;102285.80;;;4.92
65765;BMP180;52915;53.718;19.946;2022-12-18T13:15:45;102299.40;;;6.08
65765;BMP180;52915;53.718;19.946;2022-12-18T13:21:17;102302.40;;;6.32
65765;BMP180;52915;53.718;19.946;2022-12-18T13:36:46;102333.80;;;5.80
65765;BMP180;52915;53.718;19.946;2022-12-18T13:47:37;102363.40;;;2.42
65765;BMP180;52915;53.718;19.946;2022-12-18T13:52:43;102357.40;;;1.22
65765;BMP180;52915;53.718;19.946;2022-12-18T13:57:47;102352.60;;;0.16
65765;BMP180;52915;53.718;19.946;2022-12-18T14:02:52;102365.40;;;-0.80
65765;BMP180;52915;53.718;19.946;2022-12-18T14:08:05;102379.80;;;-1.60
65765;BMP180;52915;53.718;19.946;2022-12-18T14:13:27;102383.80;;;-2.40
65765;BMP180;52915;53.718;19.946;2022-12-18T14:18:53;102391.80;;;-3.10
65765;BMP180;52915;53.718;19.946;2022-12-18T14:24:21;102394.00;;;-3.50
65765;BMP180;52915;53.718;19.946;2022-12-18T14:29:30;102402.20;;;-3.60
65765;BMP180;52915;53.718;19.946;2022-12-18T14:34:35;102404.80;;;-3.84
65765;BMP180;52915;53.718;19.946;2022-12-18T14:39:39;102403.80;;;-3.80
65765;BMP180;52915;53.718;19.946;2022-12-18T14:44:43;102410.60;;;-4.00
65765;BMP180;52915;53.718;19.946;2022-12-18T14:50:14;102410.00;;;-3.90
65765;BMP180;52915;53.718;19.946;2022-12-18T14:55:21;102413.60;;;-3.94
65765;BMP180;52915;53.718;19.946;2022-12-18T15:00:26;102416.60;;;-4.10
65765;BMP180;52915;53.718;19.946;2022-12-18T15:05:32;102407.40;;;-4.10
65765;BMP180;52915;53.718;19.946;2022-12-18T15:10:47;102412.00;;;-4.20
65765;BMP180;52915;53.718;19.946;2022-12-18T15:15:55;102416.40;;;-4.00
65765;BMP180;52915;53.718;19.946;2022-12-18T15:21:09;102412.40;;;-4.08
65765;BMP180;52915;53.718;19.946;2022-12-18T15:26:17;102414.80;;;-4.00
65765;BMP180;52915;53.718;19.946;2022-12-18T15:31:32;102419.40;;;-3.90
65765;BMP180;52915;53.718;19.946;2022-12-18T15:36:49;102412.00;;;-4.04
65765;BMP180;52915;53.718;19.946;2022-12-18T15:42:28;102421.00;;;-4.00
65765;BMP180;52915;53.718;19.946;2022-12-18T15:48:42;102417.60;;;-4.10
65765;BMP180;52915;53.718;19.946;2022-12-18T15:53:56;102416.00;;;-4.10
65765;BMP180;52915;53.718;19.946;2022-12-18T15:59:01;102400.20;;;-4.10
65765;BMP180;52915;53.718;19.946;2022-12-18T16:04:12;102412.60;;;-4.20
65765;BMP180;52915;53.718;19.946;2022-12-18T16:09:28;102413.60;;;-4.00
65765;BMP180;52915;53.718;19.946;2022-12-18T16:14:45;102404.20;;;-4.20
65765;BMP180;52915;53.718;19.946;2022-12-18T16:19:50;102404.80;;;-4.20
65765;BMP180;52915;53.718;19.946;2022-12-18T16:24:58;102422.40;;;-4.30
65765;BMP180;52915;53.718;19.946;2022-12-18T16:30:30;102422.40;;;-4.26
65765;BMP180;52915;53.718;19.946;2022-12-18T16:36:04;102407.60;;;-4.20
65765;BMP180;52915;53.718;19.946;2022-12-18T16:41:45;102417.60;;;-4.20
65765;BMP180;52915;53.718;19.946;2022-12-18T16:46:49;102410.40;;;-4.20
65765;BMP180;52915;53.718;19.946;2022-12-18T16:51:58;102407.80;;;-4.30
65765;BMP180;52915;53.718;19.946;2022-12-18T16:57:22;102412.00;;;-4.30
65765;BMP180;52915;53.718;19.946;2022-12-18T17:02:27;102413.80;;;-4.20
65765;BMP180;52915;53.718;19.946;2022-12-18T17:07:32;102424.80;;;-4.20
65765;BMP180;52915;53.718;19.946;2022-12-18T17:12:36;102433.80;;;-4.26
65765;BMP180;52915;53.718;19.946;2022-12-18T17:17:44;102447.00;;;-4.30
65765;BMP180;52915;53.718;19.946;2022-12-18T17:22:48;102461.40;;;-4.20
65765;BMP180;52915;53.718;19.946;2022-12-18T17:27:52;102455.40;;;-4.20
65765;BMP180;52915;53.718;19.946;2022-12-18T17:32:55;102439.60;;;-4.20
65765;BMP180;52915;53.718;19.946;2022-12-18T17:37:59;102440.80;;;-4.20
65765;BMP180;52915;53.718;19.946;2022-12-18T17:43:03;102440.80;;;-4.40
65765;BMP180;52915;53.718;19.946;2022-12-18T17:48:09;102428.40;;;-4.40
65765;BMP180;52915;53.718;19.946;2022-12-18T17:53:13;102411.20;;;-4.50
65765;BMP180;52915;53.718;19.946;2022-12-18T17:58:17;102409.40;;;-4.60
65765;BMP180;52915;53.718;19.946;2022-12-18T18:03:22;102400.60;;;-4.52
65765;BMP180;52915;53.718;19.946;2022-12-18T18:08:28;102402.60;;;-4.60
65765;BMP180;52915;53.718;19.946;2022-12-18T18:13:35;102412.60;;;-4.62
65765;BMP180;52915;53.718;19.946;2022-12-18T18:19:06;102397.80;;;-4.70
65765;BMP180;52915;53.718;19.946;2022-12-18T18:24:14;102392.40;;;-4.80
65765;BMP180;52915;53.718;19.946;2022-12-18T18:29:23;102386.40;;;-4.80
65765;BMP180;52915;53.718;19.946;2022-12-18T18:34:32;102400.60;;;-4.90
65765;BMP180;52915;53.718;19.946;2022-12-18T18:39:39;102399.40;;;-4.80
65765;BMP180;52915;53.718;19.946;2022-12-18T18:44:44;102405.40;;;-4.80
65765;BMP180;52915;53.718;19.946;2022-12-18T18:49:52;102414.80;;;-4.80
65765;BMP180;52915;53.718;19.946;2022-12-18T18:54:57;102420.80;;;-4.90
65765;BMP180;52915;53.718;19.946;2022-12-18T19:00:17;102416.80;;;-5.10
65765;BMP180;52915;53.718;19.946;2022-12-18T19:05:21;102408.20;;;-5.20
65765;BMP180;52915;53.718;19.946;2022-12-18T19:10:26;102408.00;;;-5.36
65765;BMP180;52915;53.718;19.946;2022-12-18T19:15:32;102401.60;;;-5.50
65765;BMP180;52915;53.718;19.946;2022-12-18T19:20:36;102408.00;;;-5.60
65765;BMP180;52915;53.718;19.946;2022-12-18T19:25:42;102404.20;;;-5.70
65765;BMP180;52915;53.718;19.946;2022-12-18T19:31:06;102406.60;;;-5.70
65765;BMP180;52915;53.718;19.946;2022-12-18T19:36:21;102415.40;;;-5.90
65765;BMP180;52915;53.718;19.946;2022-12-18T19:41:28;102424.00;;;-6.02
65765;BMP180;52915;53.718;19.946;2022-12-18T19:46:35;102428.60;;;-5.90
65765;BMP180;52915;53.718;19.946;2022-12-18T19:51:44;102427.60;;;-6.00
65765;BMP180;52915;53.718;19.946;2022-12-18T19:56:48;102434.00;;;-6.30
65765;BMP180;52915;53.718;19.946;2022-12-18T20:01:53;102445.60;;;-6.30
65765;BMP180;52915;53.718;19.946;2022-12-18T20:06:57;102428.40;;;-6.50
65765;BMP180;52915;53.718;19.946;2022-12-18T20:12:02;102426.20;;;-6.50
65765;BMP180;52915;53.718;19.946;2022-12-18T20:17:06;102422.00;;;-6.50
65765;BMP180;52915;53.718;19.946;2022-12-18T20:22:11;102422.40;;;-6.70
65765;BMP180;52915;53.718;19.946;2022-12-18T20:27:16;102414.40;;;-6.80
65765;BMP180;52915;53.718;19.946;2022-12-18T20:32:22;102419.20;;;-6.80
65765;BMP180;52915;53.718;19.946;2022-12-18T20:37:26;102418.80;;;-7.00
65765;BMP180;52915;53.718;19.946;2022-12-18T20:42:30;102408.20;;;-7.00
65765;BMP180;52915;53.718;19.946;2022-12-18T20:47:38;102417.20;;;-7.00
65765;BMP180;52915;53.718;19.946;2022-12-18T20:52:42;102427.80;;;-7.20
65765;BMP180;52915;53.718;19.946;2022-12-18T20:57:47;102432.00;;;-7.18
65765;BMP180;52915;53.718;19.946;2022-12-18T21:02:52;102440.80;;;-7.00
65765;BMP180;52915;53.718;19.946;2022-12-18T21:07:56;102425.20;;;-6.90
65765;BMP180;52915;53.718;19.946;2022-12-18T21:13:00;102412.20;;;-6.90
65765;BMP180;52915;53.718;19.946;2022-12-18T21:18:09;102394.40;;;-6.90
65765;BMP180;52915;53.718;19.946;2022-12-18T21:23:13;102387.80;;;-7.00
65765;BMP180;52915;53.718;19.946;2022-12-18T21:28:19;102380.00;;;-7.00
65765;BMP180;52915;53.718;19.946;2022-12-18T21:33:23;102383.40;;;-7.00
65765;BMP180;52915;53.718;19.946;2022-12-18T21:38:26;102380.80;;;-7.00
65765;BMP180;52915;53.718;19.946;2022-12-18T21:43:30;102370.20;;;-6.90
65765;BMP180;52915;53.718;19.946;2022-12-18T21:49:06;102377.80;;;-7.00
65765;BMP180;52915;53.718;19.946;2022-12-18T21:54:11;102393.00;;;-7.10
65765;BMP180;52915;53.718;19.946;2022-12-18T22:04:30;102408.60;;;-7.20
65765;BMP180;52915;53.718;19.946;2022-12-18T22:09:35;102401.20;;;-7.22
65765;BMP180;52915;53.718;19.946;2022-12-18T22:14:38;102398.80;;;-7.40
65765;BMP180;52915;53.718;19.946;2022-12-18T22:19:42;102402.60;;;-7.40
65765;BMP180;52915;53.718;19.946;2022-12-18T22:24:45;102406.00;;;-7.30
65765;BMP180;52915;53.718;19.946;2022-12-18T22:29:49;102403.60;;;-7.20
65765;BMP180;52915;53.718;19.946;2022-12-18T22:35:08;102398.80;;;-7.20
65765;BMP180;52915;53.718;19.946;2022-12-18T22:40:21;102389.40;;;-7.20
65765;BMP180;52915;53.718;19.946;2022-12-18T22:45:31;102389.00;;;-7.30
65765;BMP180;52915;53.718;19.946;2022-12-18T22:50:40;102397.20;;;-7.30
65765;BMP180;52915;53.718;19.946;2022-12-18T22:55:43;102393.00;;;-7.30
65765;BMP180;52915;53.718;19.946;2022-12-18T23:00:47;102393.60;;;-7.30
65765;BMP180;52915;53.718;19.946;2022-12-18T23:05:51;102399.20;;;-7.30
65765;BMP180;52915;53.718;19.946;2022-12-18T23:10:56;102403.60;;;-7.30
65765;BMP180;52915;53.718;19.946;2022-12-18T23:16:08;102406.80;;;-7.30
65765;BMP180;52915;53.718;19.946;2022-12-18T23:21:18;102405.60;;;-7.30
65765;BMP180;52915;53.718;19.946;2022-12-18T23:26:24;102397.00;;;-7.30
65765;BMP180;52915;53.718;19.946;2022-12-18T23:31:34;102404.20;;;-7.20
65765;BMP180;52915;53.718;19.946;2022-12-18T23:36:38;102402.00;;;-7.10
65765;BMP180;52915;53.718;19.946;2022-12-18T23:41:48;102399.80;;;-7.10
65765;BMP180;52915;53.718;19.946;2022-12-18T23:46:52;102401.80;;;-7.00
65765;BMP180;52915;53.718;19.946;2022-12-18T23:51:55;102394.80;;;-7.02
65765;BMP180;52915;53.718;19.946;2022-12-18T23:57:00;102389.40;;;-6.96
